»·PEaware :: N9074Q KCMA-KTOA

N9074Q :: KCMA-KTOA

FLIGHT INFORMATION

Flight Status: Arrived
Operator: Privately registered:
United States
More flights under this callsign
Pilot: John N. (18861)
Aircraft: BEECH AIRCRAFT BONANZA
(BE36)
More flights by this aircraft type
Origin: KCMA Camarillo
United States
Destination: KTOA Zamperini
United States
More flights between these airports :: More routes between these airports
Route: +VTU044 GINNA V326 VNY V186 ADAMM V394 SLI
File this flight plan on PilotEdge
Remarks:
Altitude:
(Current/Filed)
0ft
Speed:
(Current/Filed)
0kts
Departed: 13-Mar-20 04:26 PM
Arrived: 13-Mar-20 05:25 PM
Distance/Time
Traveled:
45nm/0:58
Distance/Time
To Go:
Arrived

Flight Plot

Page will automatically refresh every two minutes.


Map Options




Map Legend


Flown Route
Filed Route
Departure Airport
Arrival Airport
Navaid (VOR, NDB)
Fix

Horizontal Profiles

Position Reports

Time Latitude Longitude Heading Altitude Ground
Speed
13-Mar-20 16:13 34.210380 -119.078901 91 79ft 0kts
13-Mar-20 16:14 34.210380 -119.078900 91 79ft 0kts
13-Mar-20 16:15 34.210380 -119.078899 91 79ft 0kts
13-Mar-20 16:16 34.210865 -119.082320 266 79ft 12kts
13-Mar-20 16:17 34.212080 -119.084200 324 79ft 3kts
13-Mar-20 16:18 34.212080 -119.084200 324 79ft 3kts
13-Mar-20 16:19 34.212095 -119.084212 328 79ft 0kts
13-Mar-20 16:20 34.212095 -119.084213 328 79ft 0kts
13-Mar-20 16:21 34.212096 -119.084213 328 79ft 0kts
13-Mar-20 16:22 34.212096 -119.084213 328 79ft 0kts
13-Mar-20 16:23 34.212097 -119.084214 328 79ft 0kts
13-Mar-20 16:24 34.213723 -119.086133 267 79ft 40kts
13-Mar-20 16:26 34.218223 -119.116186 287 1204ft 101kts
13-Mar-20 16:27 34.228296 -119.146085 287 2698ft 94kts
13-Mar-20 16:28 34.238365 -119.175437 287 4017ft 94kts
13-Mar-20 16:29 34.249757 -119.208566 287 5011ft 113kts
13-Mar-20 16:30 34.278081 -119.231367 19 5025ft 159kts
13-Mar-20 16:31 34.279258 -119.182252 109 5000ft 166kts
13-Mar-20 16:32 34.268913 -119.127310 102 5001ft 168kts
13-Mar-20 16:33 34.260237 -119.071757 102 5000ft 168kts
13-Mar-20 16:34 34.251622 -119.016087 102 4999ft 168kts
13-Mar-20 16:35 34.242960 -118.960222 102 5000ft 168kts
13-Mar-20 16:36 34.234311 -118.904604 102 5002ft 168kts
13-Mar-20 16:37 34.225604 -118.848790 102 5005ft 168kts
13-Mar-20 16:38 34.223092 -118.792213 91 5007ft 169kts
13-Mar-20 16:39 34.223207 -118.735287 90 5012ft 169kts
13-Mar-20 16:40 34.223301 -118.683647 91 5011ft 169kts
13-Mar-20 16:41 34.223378 -118.626715 91 5011ft 169kts
13-Mar-20 16:42 34.223429 -118.569589 91 5009ft 169kts
13-Mar-20 16:43 34.223453 -118.512565 91 5004ft 170kts
13-Mar-20 16:44 34.213015 -118.458478 111 5003ft 168kts
13-Mar-20 16:44 34.199929 -118.414105 112 5016ft 167kts
13-Mar-20 16:46 34.181253 -118.352364 112 5010ft 168kts
13-Mar-20 16:47 34.165211 -118.299596 112 5009ft 168kts
13-Mar-20 16:47 34.151732 -118.255329 112 5009ft 168kts
13-Mar-20 16:48 34.135616 -118.202452 112 5012ft 168kts
13-Mar-20 16:50 34.116729 -118.140679 112 5016ft 167kts
13-Mar-20 16:50 34.104767 -118.101625 112 5003ft 168kts
13-Mar-20 16:51 34.088564 -118.048795 112 5006ft 167kts
13-Mar-20 16:52 34.072304 -117.995885 112 5007ft 168kts
13-Mar-20 16:53 34.056065 -117.943117 112 5007ft 168kts
13-Mar-20 16:54 34.039750 -117.890200 112 5007ft 168kts
13-Mar-20 16:55 34.022305 -117.838271 135 5000ft 165kts
13-Mar-20 16:56 33.981063 -117.841933 195 5006ft 156kts
13-Mar-20 16:57 33.939107 -117.854592 205 5003ft 155kts
13-Mar-20 16:58 33.899108 -117.874016 203 4999ft 153kts
13-Mar-20 16:59 33.860441 -117.892615 203 4997ft 146kts
13-Mar-20 17:00 33.826496 -117.909245 210 4996ft 147kts
13-Mar-20 17:01 33.810294 -117.952519 250 5003ft 146kts
13-Mar-20 17:02 33.797806 -117.999122 251 4932ft 140kts
13-Mar-20 17:03 33.785915 -118.044749 251 4258ft 147kts
13-Mar-20 17:04 33.785951 -118.096049 271 3578ft 157kts
13-Mar-20 17:08 33.792037 -118.290846 271 3396ft 163kts
13-Mar-20 17:09 33.804938 -118.341183 311 3381ft 152kts
13-Mar-20 17:10 33.834961 -118.383484 304 2900ft 170kts
13-Mar-20 17:11 33.821775 -118.412883 152 2945ft 159kts
13-Mar-20 17:12 33.790353 -118.378459 137 2996ft 148kts
13-Mar-20 17:13 33.761174 -118.343855 134 2997ft 146kts
13-Mar-20 17:14 33.736570 -118.309495 132 2998ft 146kts
13-Mar-20 17:15 33.709896 -118.271990 132 2998ft 147kts
13-Mar-20 17:16 33.682668 -118.233755 132 2564ft 151kts
13-Mar-20 17:17 33.657438 -118.194796 105 2530ft 155kts
13-Mar-20 17:18 33.686887 -118.170257 340 2143ft 155kts
13-Mar-20 17:19 33.720206 -118.199089 304 1863ft 155kts
13-Mar-20 17:20 33.743678 -118.238826 300 1938ft 147kts
13-Mar-20 17:21 33.764505 -118.277668 298 1688ft 133kts
13-Mar-20 17:22 33.783809 -118.308712 307 820ft 89kts
13-Mar-20 17:23 33.798275 -118.330853 305 196ft 77kts
13-Mar-20 17:24 33.805174 -118.341588 299 107ft 14kts
13-Mar-20 17:25 33.805999 -118.344994 231 107ft 17kts

Navigation Log

Ident Type
Flight plan parsing failed, navigation log unavailable